Time;durP1;ratioP1;P1;durP2;ratioP2;P2;SDS_P1;SDS_P2;PMS_P1;PMS_P2;Temp;Humidity;BMP_temperature;BMP_pressure;BME280_temperature;BME280_humidity;BME280_pressure;Samples;Min_cycle;Max_cycle;Signal;HPM_P1;HPM_P2
2023/12/05 00:01:23;;;;;;;;;;;3.90;99.90;;;;;;5030684;28;19936;-59
2023/12/05 00:03:51;;;;;;;;;;;3.90;99.90;;;;;;5042282;28;20104;-56
2023/12/05 00:06:19;;;;;;;;;;;3.90;99.90;;;;;;5043724;28;19931;-60
2023/12/05 00:08:47;;;;;;;;;;;3.90;99.90;;;;;;5050250;28;19925;-56
2023/12/05 00:11:18;;;;;;;;;;;3.90;99.90;;;;;;5046069;28;19951;-59
2023/12/05 00:13:48;;;;;;;;;;;3.90;99.90;;;;;;5029195;28;19932;-61
2023/12/05 00:16:21;;;;;;;;;;;3.90;99.90;;;;;;5030386;28;20287;-59
2023/12/05 00:18:50;;;;;;;;;;;3.90;99.90;;;;;;5041316;28;19925;-58
2023/12/05 00:21:18;;;;;;;;;;;3.90;99.90;;;;;;5038837;28;20340;-57
2023/12/05 00:23:46;;;;;;;;;;;3.90;99.90;;;;;;5031384;28;20097;-60
2023/12/05 00:26:14;;;;;;;;;;;3.90;99.90;;;;;;5031569;28;19929;-58
2023/12/05 00:28:41;;;;;;;;;;;3.90;99.90;;;;;;5028061;28;20297;-59
2023/12/05 00:31:09;;;;;;;;;;;3.90;99.90;;;;;;5031263;28;20377;-59
2023/12/05 00:33:40;;;;;;;;;;;3.90;99.90;;;;;;5031099;28;19925;-58
2023/12/05 00:36:09;;;;;;;;;;;3.90;99.90;;;;;;5031621;28;19929;-60
2023/12/05 00:38:37;;;;;;;;;;;3.90;99.90;;;;;;5030299;28;19932;-60
2023/12/05 00:41:06;;;;;;;;;;;3.90;99.90;;;;;;5031210;28;19925;-60
2023/12/05 00:43:34;;;;;;;;;;;3.90;99.90;;;;;;5038438;28;19924;-59
2023/12/05 00:46:02;;;;;;;;;;;3.90;99.90;;;;;;5043719;28;20431;-59
2023/12/05 00:48:31;;;;;;;;;;;3.90;99.90;;;;;;5038240;28;20377;-58
2023/12/05 00:50:59;;;;;;;;;;;3.90;99.90;;;;;;5050871;28;19933;-60
2023/12/05 00:53:27;;;;;;;;;;;3.90;99.90;;;;;;5042279;28;19924;-59
2023/12/05 00:55:55;;;;;;;;;;;3.90;99.90;;;;;;5044905;28;19925;-59
2023/12/05 00:58:24;;;;;;;;;;;3.90;99.90;;;;;;5028893;28;20424;-58
2023/12/05 01:00:51;;;;;;;;;;;3.90;99.90;;;;;;5030617;28;19925;-58
2023/12/05 01:03:20;;;;;;;;;;;3.90;99.90;;;;;;5026857;28;19929;-58
2023/12/05 01:05:55;;;;;;;;;;;3.90;99.90;;;;;;5027639;28;19925;-59
2023/12/05 01:08:23;;;;;;;;;;;3.90;99.90;;;;;;5028475;28;19925;-60
2023/12/05 01:10:51;;;;;;;;;;;3.90;99.90;;;;;;5030248;28;19932;-59
2023/12/05 01:13:18;;;;;;;;;;;3.90;99.90;;;;;;5024829;28;20387;-59
2023/12/05 01:15:46;;;;;;;;;;;3.90;99.90;;;;;;5014887;28;19936;-59
2023/12/05 01:18:13;;;;;;;;;;;3.90;99.90;;;;;;5030336;28;19932;-59
2023/12/05 01:20:41;;;;;;;;;;;3.90;99.90;;;;;;5040272;28;19948;-59
2023/12/05 01:23:09;;;;;;;;;;;4.00;99.90;;;;;;5029159;28;20312;-60
2023/12/05 01:25:38;;;;;;;;;;;4.00;99.90;;;;;;5047670;28;19933;-59
2023/12/05 01:28:05;;;;;;;;;;;4.00;99.90;;;;;;5027821;28;19929;-60
2023/12/05 01:57:32;;;;;;;;;;;4.10;99.90;;;;;;5016227;28;19940;-58
2023/12/05 02:00:00;;;;;;;;;;;4.10;99.90;;;;;;5014009;28;20119;-59
2023/12/05 02:02:28;;;;;;;;;;;4.20;99.90;;;;;;5028817;28;19925;-59
2023/12/05 02:04:56;;;;;;;;;;;4.10;99.90;;;;;;5042733;28;19929;-58
2023/12/05 02:07:27;;;;;;;;;;;4.20;99.90;;;;;;5030916;28;19925;-58
2023/12/05 02:09:56;;;;;;;;;;;4.20;99.90;;;;;;5029271;28;19925;-59
2023/12/05 02:12:23;;;;;;;;;;;4.20;99.90;;;;;;5029327;28;20420;-59
2023/12/05 02:14:52;;;;;;;;;;;4.20;99.90;;;;;;5030408;28;19925;-58
2023/12/05 02:17:27;;;;;;;;;;;4.20;99.90;;;;;;5029163;28;20336;-57
2023/12/05 02:20:01;;;;;;;;;;;4.20;99.90;;;;;;5047747;28;19932;-58
2023/12/05 02:22:49;;;;;;;;;;;4.20;99.90;;;;;;5048585;28;19933;-58
2023/12/05 02:25:17;;;;;;;;;;;4.20;99.90;;;;;;5028016;28;19936;-58
2023/12/05 02:27:47;;;;;;;;;;;4.20;99.90;;;;;;5028875;28;19929;-58
2023/12/05 02:30:16;;;;;;;;;;;4.20;99.90;;;;;;5011214;28;20369;-58
2023/12/05 02:32:44;;;;;;;;;;;4.20;99.90;;;;;;5015270;28;19932;-57
2023/12/05 02:35:12;;;;;;;;;;;4.20;99.90;;;;;;5032119;28;19925;-56
2023/12/05 02:37:47;;;;;;;;;;;4.20;99.90;;;;;;5030443;28;19932;-57
2023/12/05 02:40:25;;;;;;;;;;;4.20;99.90;;;;;;5051893;28;19924;-57
2023/12/05 02:42:55;;;;;;;;;;;4.20;99.90;;;;;;5031723;28;19929;-57
2023/12/05 02:45:24;;;;;;;;;;;4.20;99.90;;;;;;5014328;28;19932;-56
2023/12/05 02:47:54;;;;;;;;;;;4.30;99.90;;;;;;5027263;28;19926;-56
2023/12/05 02:50:22;;;;;;;;;;;4.30;99.90;;;;;;5012532;28;19932;-56
2023/12/05 02:52:49;;;;;;;;;;;4.20;99.90;;;;;;5013959;28;19930;-57
2023/12/05 02:55:17;;;;;;;;;;;4.20;99.90;;;;;;5031019;28;20503;-58
2023/12/05 02:57:45;;;;;;;;;;;4.30;99.90;;;;;;5031388;28;19929;-58
2023/12/05 03:00:13;;;;;;;;;;;4.30;99.90;;;;;;5031737;28;19925;-58
2023/12/05 03:02:41;;;;;;;;;;;4.30;99.90;;;;;;5031001;28;19925;-58
2023/12/05 03:05:09;;;;;;;;;;;4.30;99.90;;;;;;5031498;28;19925;-57
2023/12/05 03:07:36;;;;;;;;;;;4.30;99.90;;;;;;5031775;28;19992;-59
2023/12/05 03:10:04;;;;;;;;;;;4.30;99.90;;;;;;5031893;28;19931;-59
2023/12/05 03:12:33;;;;;;;;;;;4.30;99.90;;;;;;5031805;28;19932;-58
2023/12/05 03:15:01;;;;;;;;;;;4.30;99.90;;;;;;5030727;28;19936;-58
2023/12/05 03:17:28;;;;;;;;;;;4.30;99.90;;;;;;5031945;28;20262;-59
2023/12/05 03:19:56;;;;;;;;;;;4.30;99.90;;;;;;5031682;28;20385;-58
2023/12/05 03:22:24;;;;;;;;;;;4.30;99.90;;;;;;5030496;28;19929;-59
2023/12/05 03:24:51;;;;;;;;;;;4.30;99.90;;;;;;5031528;28;19933;-59
2023/12/05 03:27:20;;;;;;;;;;;4.30;99.90;;;;;;5030973;28;19929;-60
2023/12/05 03:29:47;;;;;;;;;;;4.30;99.90;;;;;;5031525;28;19932;-59
2023/12/05 03:32:16;;;;;;;;;;;4.30;99.90;;;;;;5031625;28;19925;-59
2023/12/05 03:34:46;;;;;;;;;;;4.30;99.90;;;;;;5042224;28;20387;-60
2023/12/05 03:37:14;;;;;;;;;;;4.30;99.90;;;;;;5036166;28;19925;-59
2023/12/05 03:39:41;;;;;;;;;;;4.30;99.90;;;;;;5028308;28;19925;-59
2023/12/05 03:42:09;;;;;;;;;;;4.30;99.90;;;;;;5015585;28;19925;-60
2023/12/05 03:44:36;;;;;;;;;;;4.40;99.90;;;;;;5011766;28;19925;-59
2023/12/05 03:47:04;;;;;;;;;;;4.40;99.90;;;;;;5015638;28;19932;-59
2023/12/05 03:49:33;;;;;;;;;;;4.30;99.90;;;;;;5031095;28;19932;-59
2023/12/05 03:52:01;;;;;;;;;;;4.40;99.90;;;;;;5031534;28;19925;-59
2023/12/05 03:54:29;;;;;;;;;;;4.30;99.90;;;;;;5030266;28;19933;-60
2023/12/05 03:56:56;;;;;;;;;;;4.40;99.90;;;;;;5030746;28;20534;-59
2023/12/05 03:59:24;;;;;;;;;;;4.30;99.90;;;;;;5031342;28;19925;-59
2023/12/05 04:01:52;;;;;;;;;;;4.40;99.90;;;;;;5031528;28;20246;-60
2023/12/05 04:04:20;;;;;;;;;;;4.30;99.90;;;;;;5031625;28;19929;-57
2023/12/05 04:06:47;;;;;;;;;;;4.40;99.90;;;;;;5045004;28;20429;-57
2023/12/05 04:09:15;;;;;;;;;;;4.30;99.90;;;;;;5032752;28;20400;-57
2023/12/05 04:11:43;;;;;;;;;;;4.40;99.90;;;;;;5031198;28;19939;-57
2023/12/05 04:14:10;;;;;;;;;;;4.30;99.90;;;;;;5031581;28;19932;-58
2023/12/05 04:16:38;;;;;;;;;;;4.30;99.90;;;;;;5031201;28;19925;-59
2023/12/05 04:19:05;;;;;;;;;;;4.30;99.90;;;;;;5031288;28;19925;-58
2023/12/05 04:21:33;;;;;;;;;;;4.30;99.90;;;;;;5047749;28;19932;-58
2023/12/05 04:24:01;;;;;;;;;;;4.30;99.90;;;;;;5051016;28;20297;-58
2023/12/05 04:26:28;;;;;;;;;;;4.30;99.90;;;;;;5066507;28;19925;-58
2023/12/05 04:28:57;;;;;;;;;;;4.30;99.90;;;;;;5034844;28;19925;-59
2023/12/05 04:31:26;;;;;;;;;;;4.30;99.90;;;;;;5031109;28;19925;-59
2023/12/05 04:33:54;;;;;;;;;;;4.30;99.90;;;;;;5031169;28;19925;-59
2023/12/05 04:36:25;;;;;;;;;;;4.30;99.90;;;;;;5041269;28;20579;-59
2023/12/05 04:38:53;;;;;;;;;;;4.30;99.90;;;;;;5042501;28;19943;-59
2023/12/05 04:41:21;;;;;;;;;;;4.30;99.90;;;;;;5040646;28;19932;-59
2023/12/05 04:43:48;;;;;;;;;;;4.50;99.90;;;;;;5034353;28;19932;-57
2023/12/05 04:46:16;;;;;;;;;;;4.30;99.90;;;;;;5034082;28;19947;-58
2023/12/05 04:48:43;;;;;;;;;;;4.20;99.90;;;;;;5034342;28;19941;-59
2023/12/05 04:51:11;;;;;;;;;;;4.30;99.90;;;;;;5034530;28;19952;-59
2023/12/05 04:53:40;;;;;;;;;;;4.30;99.90;;;;;;5034320;28;19925;-59
2023/12/05 04:56:08;;;;;;;;;;;4.30;99.90;;;;;;5033929;28;19936;-59
2023/12/05 04:58:35;;;;;;;;;;;4.30;99.90;;;;;;5034253;28;19925;-59
2023/12/05 05:01:03;;;;;;;;;;;4.20;99.90;;;;;;5033826;28;20293;-58
2023/12/05 05:03:31;;;;;;;;;;;4.30;99.90;;;;;;5034164;28;20392;-58
2023/12/05 05:05:58;;;;;;;;;;;4.20;99.90;;;;;;5040858;28;20292;-60
2023/12/05 05:08:27;;;;;;;;;;;4.20;99.90;;;;;;5037215;28;19925;-59
2023/12/05 05:10:55;;;;;;;;;;;4.20;99.90;;;;;;5033864;28;19925;-59
2023/12/05 05:13:22;;;;;;;;;;;4.20;99.90;;;;;;5033199;28;19925;-58
2023/12/05 05:15:51;;;;;;;;;;;4.20;99.90;;;;;;5032151;28;19944;-58
2023/12/05 05:18:18;;;;;;;;;;;4.20;99.90;;;;;;5033423;28;19925;-57
2023/12/05 05:20:52;;;;;;;;;;;4.20;99.90;;;;;;5033810;28;19925;-58
2023/12/05 05:23:20;;;;;;;;;;;4.20;99.90;;;;;;5032644;28;19925;-57
2023/12/05 05:25:47;;;;;;;;;;;4.20;99.90;;;;;;5033302;28;19952;-58
2023/12/05 05:28:15;;;;;;;;;;;4.20;99.90;;;;;;5033621;28;19925;-57
2023/12/05 05:30:42;;;;;;;;;;;4.20;99.90;;;;;;5033327;28;20293;-59
2023/12/05 05:33:10;;;;;;;;;;;4.20;99.90;;;;;;5032597;28;20407;-58
2023/12/05 05:35:38;;;;;;;;;;;4.20;99.90;;;;;;5037346;28;19925;-59
2023/12/05 05:38:05;;;;;;;;;;;4.20;99.90;;;;;;5049903;28;19932;-57
2023/12/05 05:40:33;;;;;;;;;;;4.20;99.90;;;;;;5033537;28;19925;-58
2023/12/05 05:43:01;;;;;;;;;;;4.20;99.90;;;;;;5033266;28;20480;-60
2023/12/05 05:45:29;;;;;;;;;;;4.20;99.90;;;;;;5032847;28;19925;-60
2023/12/05 05:47:57;;;;;;;;;;;4.20;99.90;;;;;;5021843;28;19926;-57
2023/12/05 05:50:25;;;;;;;;;;;4.20;99.90;;;;;;5029781;28;19929;-57
2023/12/05 05:52:52;;;;;;;;;;;4.20;99.90;;;;;;5029845;28;19929;-58
2023/12/05 05:55:24;;;;;;;;;;;4.20;99.90;;;;;;5029555;28;19929;-59
2023/12/05 05:57:53;;;;;;;;;;;4.20;99.90;;;;;;5036050;28;19925;-58
2023/12/05 06:00:21;;;;;;;;;;;4.20;99.90;;;;;;5029536;28;20297;-58
2023/12/05 06:02:49;;;;;;;;;;;4.20;99.90;;;;;;5021104;28;19925;-60
2023/12/05 06:05:17;;;;;;;;;;;4.20;99.90;;;;;;5026779;28;19925;-59
2023/12/05 06:07:45;;;;;;;;;;;4.20;99.90;;;;;;5040729;28;19933;-59
2023/12/05 06:10:12;;;;;;;;;;;4.20;99.90;;;;;;5027013;28;19929;-58
2023/12/05 06:12:40;;;;;;;;;;;4.20;99.90;;;;;;5019281;28;19929;-59
2023/12/05 06:15:10;;;;;;;;;;;4.20;99.90;;;;;;5029334;28;19925;-58
2023/12/05 06:17:37;;;;;;;;;;;4.20;99.90;;;;;;5024508;28;19936;-59
2023/12/05 06:20:09;;;;;;;;;;;4.20;99.90;;;;;;5020718;28;19925;-57
2023/12/05 06:22:36;;;;;;;;;;;4.20;99.90;;;;;;5033760;28;19925;-59
2023/12/05 06:25:04;;;;;;;;;;;4.20;99.90;;;;;;5046291;28;19925;-55
2023/12/05 06:27:32;;;;;;;;;;;4.20;99.90;;;;;;5042073;28;20537;-59
2023/12/05 06:30:00;;;;;;;;;;;4.20;99.90;;;;;;5028227;28;20248;-56
2023/12/05 06:32:43;;;;;;;;;;;4.20;99.90;;;;;;5023578;28;19931;-57
2023/12/05 06:35:11;;;;;;;;;;;4.20;99.90;;;;;;5025242;28;19929;-59
2023/12/05 06:37:39;;;;;;;;;;;4.20;99.90;;;;;;5040997;28;19932;-57
2023/12/05 06:40:07;;;;;;;;;;;4.20;99.90;;;;;;5025402;28;19932;-57
2023/12/05 06:42:35;;;;;;;;;;;4.20;99.90;;;;;;5031980;28;19927;-57
2023/12/05 06:45:03;;;;;;;;;;;4.20;99.90;;;;;;5037091;28;19925;-57
2023/12/05 06:47:31;;;;;;;;;;;4.20;99.90;;;;;;5013364;28;20257;-58
2023/12/05 06:50:01;;;;;;;;;;;4.20;99.90;;;;;;5015324;28;19925;-59
2023/12/05 06:52:29;;;;;;;;;;;4.20;99.90;;;;;;5032062;28;19928;-58
2023/12/05 06:54:57;;;;;;;;;;;4.30;99.90;;;;;;5045527;28;20645;-59
2023/12/05 06:57:25;;;;;;;;;;;4.30;99.90;;;;;;5045079;28;19925;-58
2023/12/05 06:59:53;;;;;;;;;;;4.30;99.90;;;;;;5040437;28;19941;-58
2023/12/05 07:02:21;;;;;;;;;;;4.20;99.90;;;;;;5010213;28;20420;-58
2023/12/05 07:04:50;;;;;;;;;;;4.30;99.90;;;;;;5011133;28;19929;-59
2023/12/05 07:07:18;;;;;;;;;;;4.30;99.90;;;;;;5043523;28;19928;-58
2023/12/05 07:09:46;;;;;;;;;;;4.20;99.90;;;;;;5028588;28;19929;-59
2023/12/05 07:12:13;;;;;;;;;;;4.20;99.90;;;;;;5032352;28;19925;-59
2023/12/05 07:14:41;;;;;;;;;;;4.20;99.90;;;;;;5034418;28;19925;-60
2023/12/05 07:17:09;;;;;;;;;;;4.30;99.90;;;;;;5025383;28;20304;-59
2023/12/05 07:19:36;;;;;;;;;;;4.30;99.90;;;;;;5010610;28;19956;-60
2023/12/05 07:22:04;;;;;;;;;;;4.20;99.90;;;;;;5013532;28;19932;-59
2023/12/05 07:24:33;;;;;;;;;;;4.30;99.90;;;;;;5038083;28;19945;-59
2023/12/05 07:27:01;;;;;;;;;;;4.20;99.90;;;;;;5028233;28;19929;-58
2023/12/05 07:29:31;;;;;;;;;;;4.20;99.90;;;;;;5027837;28;19951;-60
2023/12/05 07:31:59;;;;;;;;;;;4.20;99.90;;;;;;5025524;28;19929;-59
2023/12/05 07:34:26;;;;;;;;;;;4.20;99.90;;;;;;5018943;28;19937;-57
2023/12/05 07:36:54;;;;;;;;;;;4.20;99.90;;;;;;5027193;28;19925;-59
2023/12/05 07:39:25;;;;;;;;;;;4.20;99.90;;;;;;5026732;28;19949;-59
2023/12/05 07:41:53;;;;;;;;;;;4.20;99.90;;;;;;5026336;28;19936;-57
2023/12/05 07:44:21;;;;;;;;;;;4.20;99.90;;;;;;5025082;28;19932;-59
2023/12/05 07:46:49;;;;;;;;;;;4.20;99.90;;;;;;5027097;28;19924;-57
2023/12/05 07:49:17;;;;;;;;;;;4.20;99.90;;;;;;5019156;28;19933;-57
2023/12/05 07:51:44;;;;;;;;;;;4.20;99.90;;;;;;5027639;28;19925;-57
2023/12/05 07:54:15;;;;;;;;;;;4.20;99.90;;;;;;5042722;28;19925;-58
2023/12/05 07:56:43;;;;;;;;;;;4.20;99.90;;;;;;5038694;28;19925;-57
2023/12/05 07:59:10;;;;;;;;;;;4.20;99.90;;;;;;5026302;28;19925;-58
2023/12/05 08:01:42;;;;;;;;;;;4.20;99.90;;;;;;5027456;28;19932;-57
2023/12/05 08:04:10;;;;;;;;;;;4.20;99.90;;;;;;5009793;28;19925;-60
2023/12/05 08:06:38;;;;;;;;;;;4.20;99.90;;;;;;5029436;28;19925;-58
2023/12/05 08:09:06;;;;;;;;;;;4.20;99.90;;;;;;5038096;28;19932;-59
2023/12/05 08:11:35;;;;;;;;;;;4.20;99.90;;;;;;5011643;28;19925;-58
2023/12/05 08:14:04;;;;;;;;;;;4.20;99.90;;;;;;5051822;28;19933;-58
2023/12/05 08:16:31;;;;;;;;;;;4.20;99.90;;;;;;5026987;28;19925;-57
2023/12/05 08:18:59;;;;;;;;;;;4.20;99.90;;;;;;5027354;28;19932;-60
2023/12/05 08:21:27;;;;;;;;;;;4.20;99.90;;;;;;5028137;28;20392;-59
2023/12/05 08:23:55;;;;;;;;;;;4.30;99.90;;;;;;5028050;28;19929;-58
2023/12/05 08:26:26;;;;;;;;;;;4.20;99.90;;;;;;5028031;28;19936;-59
2023/12/05 08:28:53;;;;;;;;;;;4.20;99.90;;;;;;5025516;28;20526;-57
2023/12/05 08:31:22;;;;;;;;;;;4.20;99.90;;;;;;5028562;28;20401;-59
2023/12/05 08:33:53;;;;;;;;;;;4.30;99.90;;;;;;5029625;28;19941;-59
2023/12/05 08:36:22;;;;;;;;;;;4.30;99.90;;;;;;5039320;28;20284;-59
2023/12/05 08:38:50;;;;;;;;;;;4.30;99.90;;;;;;5049886;28;20278;-59
2023/12/05 08:41:19;;;;;;;;;;;4.30;99.90;;;;;;5042251;28;19925;-58
2023/12/05 08:43:47;;;;;;;;;;;4.30;99.90;;;;;;5028545;28;19925;-59
2023/12/05 08:46:15;;;;;;;;;;;4.30;99.90;;;;;;5027084;28;19956;-58
2023/12/05 08:48:43;;;;;;;;;;;4.30;99.90;;;;;;5030864;28;20394;-58
2023/12/05 08:51:12;;;;;;;;;;;4.40;99.90;;;;;;5032915;28;20389;-59
2023/12/05 08:53:42;;;;;;;;;;;4.40;99.90;;;;;;5031508;28;19925;-58
2023/12/05 08:56:10;;;;;;;;;;;4.40;99.90;;;;;;5028376;28;19932;-58
2023/12/05 08:58:38;;;;;;;;;;;4.40;99.90;;;;;;5041328;28;19929;-59
2023/12/05 09:01:06;;;;;;;;;;;4.40;99.90;;;;;;5038009;28;19926;-59
2023/12/05 09:03:33;;;;;;;;;;;4.40;99.90;;;;;;5027945;28;20386;-58
2023/12/05 09:06:02;;;;;;;;;;;4.50;99.90;;;;;;5035455;28;20000;-59
2023/12/05 09:08:32;;;;;;;;;;;4.50;99.90;;;;;;5039926;28;19925;-59
2023/12/05 09:11:03;;;;;;;;;;;4.50;99.90;;;;;;5028911;28;19968;-58
2023/12/05 09:13:30;;;;;;;;;;;4.60;99.90;;;;;;5030143;28;19925;-58
2023/12/05 09:15:58;;;;;;;;;;;4.50;99.90;;;;;;5029436;28;20393;-57
2023/12/05 09:18:26;;;;;;;;;;;4.60;99.90;;;;;;5028704;28;19932;-58
2023/12/05 09:20:54;;;;;;;;;;;4.60;99.90;;;;;;5015343;28;19929;-58
2023/12/05 09:23:26;;;;;;;;;;;4.60;99.90;;;;;;5024474;28;19936;-57
2023/12/05 09:25:54;;;;;;;;;;;4.70;99.90;;;;;;5028541;28;20136;-56
2023/12/05 09:28:22;;;;;;;;;;;4.70;99.90;;;;;;5036221;28;20302;-58
2023/12/05 09:30:50;;;;;;;;;;;4.70;99.90;;;;;;5010361;28;20257;-59
2023/12/05 09:33:21;;;;;;;;;;;4.70;99.90;;;;;;5030089;28;20317;-58
2023/12/05 09:35:48;;;;;;;;;;;4.70;99.90;;;;;;5027258;28;19925;-58
2023/12/05 09:38:17;;;;;;;;;;;4.70;99.90;;;;;;5036906;28;19932;-59
2023/12/05 09:40:45;;;;;;;;;;;4.80;99.90;;;;;;5029971;28;19936;-59
2023/12/05 09:43:15;;;;;;;;;;;4.80;99.90;;;;;;5033344;28;20376;-58
2023/12/05 09:45:45;;;;;;;;;;;4.80;99.90;;;;;;5028674;28;19933;-59
2023/12/05 09:48:17;;;;;;;;;;;4.90;99.90;;;;;;5040966;28;19929;-59
2023/12/05 09:50:45;;;;;;;;;;;4.90;99.90;;;;;;5016282;28;19933;-59
2023/12/05 09:53:14;;;;;;;;;;;5.00;99.90;;;;;;5027698;28;20325;-58
2023/12/05 09:55:42;;;;;;;;;;;5.00;99.90;;;;;;5024902;28;19936;-59
2023/12/05 09:58:12;;;;;;;;;;;5.10;99.90;;;;;;5028685;28;19945;-59
2023/12/05 10:00:41;;;;;;;;;;;5.10;99.90;;;;;;5021532;28;19926;-59
2023/12/05 10:03:09;;;;;;;;;;;5.20;99.90;;;;;;5029183;28;19940;-59
2023/12/05 10:05:40;;;;;;;;;;;5.20;99.90;;;;;;5024515;28;19925;-59
2023/12/05 10:08:10;;;;;;;;;;;5.20;99.90;;;;;;5036378;28;19926;-58
2023/12/05 10:10:38;;;;;;;;;;;5.30;99.90;;;;;;5028342;28;19925;-59
2023/12/05 10:13:09;;;;;;;;;;;5.30;99.90;;;;;;5038055;28;19925;-59
2023/12/05 10:15:37;;;;;;;;;;;5.30;99.90;;;;;;5028714;28;19925;-59
2023/12/05 10:18:04;;;;;;;;;;;5.40;99.90;;;;;;5019023;28;19936;-58
2023/12/05 10:20:32;;;;;;;;;;;5.40;99.90;;;;;;5032263;28;19932;-59
2023/12/05 10:23:00;;;;;;;;;;;5.40;99.90;;;;;;5046742;28;20284;-59
2023/12/05 10:25:28;;;;;;;;;;;5.50;99.90;;;;;;5045333;28;19924;-58
2023/12/05 10:28:03;;;;;;;;;;;5.50;99.90;;;;;;5021699;28;19925;-59
2023/12/05 10:30:32;;;;;;;;;;;5.50;99.90;;;;;;5023330;28;19929;-58
2023/12/05 10:33:13;;;;;;;;;;;5.60;99.90;;;;;;5042889;28;19932;-59
2023/12/05 10:35:43;;;;;;;;;;;5.60;99.90;;;;;;5031070;28;19929;-56
2023/12/05 10:38:13;;;;;;;;;;;5.60;99.90;;;;;;5035545;28;19925;-56
2023/12/05 10:40:51;;;;;;;;;;;5.60;99.90;;;;;;5029674;28;19944;-58
2023/12/05 10:43:19;;;;;;;;;;;5.70;99.90;;;;;;5026605;28;19932;-57
2023/12/05 10:45:47;;;;;;;;;;;5.70;99.90;;;;;;5024469;28;19924;-57
2023/12/05 10:48:15;;;;;;;;;;;5.70;99.90;;;;;;5018112;28;19929;-57
2023/12/05 10:50:43;;;;;;;;;;;5.80;99.90;;;;;;5024526;28;19930;-59
2023/12/05 10:53:11;;;;;;;;;;;5.80;99.90;;;;;;5031080;28;19925;-58
2023/12/05 10:55:39;;;;;;;;;;;5.80;99.90;;;;;;5048506;28;19925;-58
2023/12/05 10:58:10;;;;;;;;;;;5.90;99.90;;;;;;5019348;28;19925;-58
2023/12/05 11:00:38;;;;;;;;;;;5.90;99.90;;;;;;5015786;28;19930;-58
2023/12/05 11:03:06;;;;;;;;;;;5.90;99.90;;;;;;5016498;28;20317;-56
2023/12/05 11:05:35;;;;;;;;;;;6.00;99.90;;;;;;5016588;28;19929;-56
2023/12/05 11:08:04;;;;;;;;;;;6.00;99.90;;;;;;5019572;28;20533;-58
2023/12/05 11:10:32;;;;;;;;;;;6.10;99.90;;;;;;5014660;28;19936;-58
2023/12/05 11:13:01;;;;;;;;;;;6.10;99.90;;;;;;5020337;28;20300;-57
2023/12/05 11:15:31;;;;;;;;;;;6.20;99.90;;;;;;5019870;28;19932;-58
2023/12/05 11:18:00;;;;;;;;;;;6.20;99.90;;;;;;5024457;28;20349;-57
2023/12/05 11:20:43;;;;;;;;;;;6.20;99.90;;;;;;5029220;28;19925;-58
2023/12/05 11:23:41;;;;;;;;;;;6.30;99.90;;;;;;5024125;28;19925;-58
2023/12/05 11:26:11;;;;;;;;;;;6.40;99.90;;;;;;5022468;28;19925;-57
2023/12/05 11:28:42;;;;;;;;;;;6.50;99.90;;;;;;5018290;28;19926;-58
2023/12/05 11:31:19;;;;;;;;;;;6.60;99.90;;;;;;5017951;28;20290;-59
2023/12/05 11:34:08;;;;;;;;;;;6.80;99.90;;;;;;5043234;28;19936;-58
2023/12/05 11:36:41;;;;;;;;;;;6.90;99.90;;;;;;5023923;28;19925;-59
2023/12/05 11:39:09;;;;;;;;;;;7.00;99.90;;;;;;5034835;28;19929;-58
2023/12/05 11:41:37;;;;;;;;;;;7.20;99.90;;;;;;5025090;28;19925;-59
2023/12/05 11:44:14;;;;;;;;;;;7.50;99.90;;;;;;5024282;28;20388;-57
2023/12/05 11:46:48;;;;;;;;;;;7.70;99.90;;;;;;5039487;28;19925;-58
2023/12/05 11:49:26;;;;;;;;;;;7.80;99.90;;;;;;5039210;28;19925;-57
2023/12/05 11:51:53;;;;;;;;;;;7.80;99.90;;;;;;5009801;28;19933;-58
2023/12/05 11:54:24;;;;;;;;;;;7.60;99.90;;;;;;5029346;28;19926;-59
2023/12/05 11:57:09;;;;;;;;;;;7.60;99.90;;;;;;5045651;28;19929;-59
2023/12/05 11:59:39;;;;;;;;;;;7.40;99.90;;;;;;5031073;28;19940;-57
2023/12/05 12:02:08;;;;;;;;;;;7.30;99.90;;;;;;5035466;28;19925;-57
2023/12/05 12:04:35;;;;;;;;;;;7.10;99.90;;;;;;5031811;28;19925;-58
2023/12/05 12:07:03;;;;;;;;;;;7.00;99.90;;;;;;5028684;28;19929;-58
2023/12/05 12:09:39;;;;;;;;;;;6.90;99.90;;;;;;5019169;28;20286;-57
2023/12/05 12:12:07;;;;;;;;;;;6.90;99.90;;;;;;5012149;28;19972;-59
2023/12/05 12:14:35;;;;;;;;;;;6.80;99.90;;;;;;5013783;28;19932;-58
2023/12/05 12:17:04;;;;;;;;;;;6.70;99.90;;;;;;5027795;28;19933;-58
2023/12/05 12:20:14;;;;;;;;;;;6.60;99.90;;;;;;5024847;28;19921;-59
2023/12/05 12:22:51;;;;;;;;;;;6.60;99.90;;;;;;5022606;28;19925;-58
2023/12/05 12:25:19;;;;;;;;;;;6.50;99.90;;;;;;5029533;28;19937;-59
2023/12/05 12:27:47;;;;;;;;;;;6.40;99.90;;;;;;5046109;28;19925;-57
2023/12/05 12:30:17;;;;;;;;;;;6.40;99.90;;;;;;5034852;28;20534;-58
2023/12/05 12:32:53;;;;;;;;;;;6.40;99.90;;;;;;5026140;28;20389;-57
2023/12/05 12:35:22;;;;;;;;;;;6.30;99.90;;;;;;5020864;28;19926;-58
2023/12/05 12:37:51;;;;;;;;;;;6.30;99.90;;;;;;5028473;28;20400;-58
2023/12/05 12:40:19;;;;;;;;;;;6.30;99.90;;;;;;5029284;28;20417;-58
2023/12/05 12:42:50;;;;;;;;;;;6.40;99.90;;;;;;5027868;28;20309;-59
2023/12/05 12:45:19;;;;;;;;;;;6.40;99.90;;;;;;5021437;28;19929;-59
2023/12/05 12:47:47;;;;;;;;;;;6.30;99.90;;;;;;5027385;28;20302;-58
2023/12/05 12:50:15;;;;;;;;;;;6.30;99.90;;;;;;5021003;28;19936;-59
2023/12/05 12:52:43;;;;;;;;;;;6.30;99.90;;;;;;5026766;28;19932;-59
2023/12/05 12:55:16;;;;;;;;;;;6.30;99.90;;;;;;5011969;28;19925;-59
2023/12/05 12:57:44;;;;;;;;;;;6.30;99.90;;;;;;5014473;28;19925;-59
2023/12/05 13:00:15;;;;;;;;;;;6.20;99.90;;;;;;5014957;28;20404;-59
2023/12/05 13:03:01;;;;;;;;;;;6.20;99.90;;;;;;5036211;28;20404;-59
2023/12/05 13:05:36;;;;;;;;;;;6.20;99.90;;;;;;5036645;28;19928;-59
2023/12/05 13:08:04;;;;;;;;;;;6.20;99.90;;;;;;5010869;28;20553;-60
2023/12/05 13:10:33;;;;;;;;;;;6.20;99.90;;;;;;5016967;28;20685;-58
2023/12/05 13:13:04;;;;;;;;;;;6.20;99.90;;;;;;5031834;28;20399;-60
2023/12/05 13:15:32;;;;;;;;;;;6.20;99.90;;;;;;5029752;28;19925;-58
2023/12/05 13:18:01;;;;;;;;;;;6.20;99.90;;;;;;5020456;28;19925;-59
2023/12/05 13:20:29;;;;;;;;;;;6.20;99.90;;;;;;5029476;28;20405;-59
2023/12/05 13:23:00;;;;;;;;;;;6.20;99.90;;;;;;5026345;28;20301;-57
2023/12/05 13:25:28;;;;;;;;;;;6.30;99.90;;;;;;5009675;28;19929;-58
2023/12/05 13:28:09;;;;;;;;;;;6.20;99.90;;;;;;5027582;28;19932;-56
2023/12/05 13:30:38;;;;;;;;;;;6.20;99.90;;;;;;5031745;28;19932;-59
2023/12/05 13:33:08;;;;;;;;;;;6.20;99.90;;;;;;5023670;28;19937;-59
2023/12/05 13:35:40;;;;;;;;;;;6.20;99.90;;;;;;5042472;28;19946;-59
2023/12/05 13:38:08;;;;;;;;;;;6.30;99.90;;;;;;5030562;28;20400;-59
2023/12/05 13:40:36;;;;;;;;;;;6.30;99.90;;;;;;5013980;28;19925;-59
2023/12/05 13:43:06;;;;;;;;;;;6.30;99.90;;;;;;5038842;28;20376;-59
2023/12/05 13:45:34;;;;;;;;;;;6.30;99.90;;;;;;5049882;28;20412;-59
2023/12/05 13:48:03;;;;;;;;;;;6.30;99.90;;;;;;5044079;28;19933;-59
2023/12/05 13:50:31;;;;;;;;;;;6.30;99.90;;;;;;5029316;28;20366;-59
2023/12/05 13:52:59;;;;;;;;;;;6.30;99.90;;;;;;5026690;28;20298;-60
2023/12/05 13:55:27;;;;;;;;;;;6.30;99.90;;;;;;5016530;28;20419;-56
2023/12/05 13:57:55;;;;;;;;;;;6.30;99.90;;;;;;5034159;28;19935;-57
2023/12/05 14:00:23;;;;;;;;;;;6.30;99.90;;;;;;5046683;28;20503;-59
2023/12/05 14:02:51;;;;;;;;;;;6.30;99.90;;;;;;5039706;28;19925;-57
2023/12/05 14:05:18;;;;;;;;;;;6.30;99.90;;;;;;5038079;28;19925;-57
2023/12/05 14:07:46;;;;;;;;;;;6.30;99.90;;;;;;5031864;28;19932;-58
2023/12/05 14:10:14;;;;;;;;;;;6.30;99.90;;;;;;5026027;28;20400;-56
2023/12/05 14:12:41;;;;;;;;;;;6.30;99.90;;;;;;5034200;28;19932;-59
2023/12/05 14:15:09;;;;;;;;;;;6.30;99.90;;;;;;5026037;28;19925;-57
2023/12/05 14:17:36;;;;;;;;;;;6.30;99.90;;;;;;5026270;28;19940;-59
2023/12/05 14:20:06;;;;;;;;;;;6.30;99.90;;;;;;5036855;28;20362;-59
2023/12/05 14:22:34;;;;;;;;;;;6.20;99.90;;;;;;5019636;28;19932;-57
2023/12/05 14:25:02;;;;;;;;;;;6.20;99.90;;;;;;5020362;28;19936;-56
2023/12/05 14:27:30;;;;;;;;;;;6.20;99.90;;;;;;5017033;28;20316;-57
2023/12/05 14:29:58;;;;;;;;;;;6.10;99.90;;;;;;5040550;28;19933;-57
2023/12/05 14:32:25;;;;;;;;;;;6.10;99.90;;;;;;5028147;28;19925;-57
2023/12/05 14:34:53;;;;;;;;;;;6.10;99.90;;;;;;5028932;28;19940;-57
2023/12/05 14:37:21;;;;;;;;;;;6.10;99.90;;;;;;5047243;28;20370;-55
2023/12/05 14:39:49;;;;;;;;;;;6.10;99.90;;;;;;5023807;28;19932;-56
2023/12/05 14:42:18;;;;;;;;;;;6.10;99.90;;;;;;5033287;28;19932;-56
2023/12/05 14:44:46;;;;;;;;;;;6.00;99.90;;;;;;5027951;28;19929;-55
2023/12/05 14:47:14;;;;;;;;;;;6.00;99.90;;;;;;5029050;28;19925;-56
2023/12/05 14:49:42;;;;;;;;;;;6.00;99.90;;;;;;5028312;28;19932;-56
2023/12/05 14:52:09;;;;;;;;;;;6.00;99.90;;;;;;5028517;28;19925;-56
2023/12/05 14:54:37;;;;;;;;;;;6.00;99.90;;;;;;5028836;28;19925;-55
2023/12/05 14:57:05;;;;;;;;;;;6.00;99.90;;;;;;5009559;28;19925;-58
2023/12/05 14:59:33;;;;;;;;;;;5.90;99.90;;;;;;5014209;28;20275;-58
2023/12/05 15:02:01;;;;;;;;;;;5.90;99.90;;;;;;5023740;28;19929;-57
2023/12/05 15:04:29;;;;;;;;;;;5.90;99.90;;;;;;5025947;28;19929;-58
2023/12/05 15:06:57;;;;;;;;;;;5.90;99.90;;;;;;5022546;28;19933;-58
2023/12/05 15:09:25;;;;;;;;;;;5.80;99.90;;;;;;5022358;28;20313;-58